Impacts TAF Board INFO
FOR SITUATIONAL AWARENESS. NOT TO BE USED FOR FLIGHT PLANNING PURPOSES.
IDs:

KPDX - Portland Intl Arpt, OR, US

Issued at 0304 UTC 18 Jan 2018
Updated at 0529 UTC 18 Jan 2018
Potential Impact None Slight Moderate High
Time<<19/06Z 19/07Z 19/08Z 19/09Z 19/10Z 19/11Z 19/12Z 19/13Z 19/14Z 19/15Z 19/16Z 19/17Z 19/18Z
Type
VIS
CIG
Cover
FltCat
WX
WDir
WSpd
WGst

Raw TAF
KPDX 180304Z 1803/1824 13013G22KT 5SM -RA SCT015 OVC040
  FM180400 13015G25KT P6SM -SHRA SCT015 BKN025 OVC045
  FM180800 19015G25KT P6SM -SHRA SCT015 BKN035 OVC050
  FM181400 20015G25KT 6SM -RA BR BKN025 OVC040
  FM181900 20015G25KT P6SM -SHRA SCT020 BKN035 BKN060


METAR Board
Radar Display
Forecast Discussion

FOR SITUATIONAL AWARENESS. NOT TO BE USED FOR FLIGHT PLANNING PURPOSES.